createdAt,value
2022-08-05T00:00:00.289Z,59.92
2022-08-05T00:02:28.655Z,60.37
2022-08-05T00:04:56.912Z,60.38
2022-08-05T00:07:58.873Z,59.78
2022-08-05T00:10:14.412Z,59.91
2022-08-05T00:12:55.962Z,60.42
2022-08-05T00:15:55.271Z,60.78
2022-08-05T00:18:21.382Z,60.05
2022-08-05T00:20:49.822Z,60.41
2022-08-05T00:23:17.271Z,61.01
2022-08-05T00:26:07.110Z,61.25
2022-08-05T00:28:35.350Z,61.01
2022-08-05T00:31:04.414Z,61.50
2022-08-05T00:34:53.354Z,61.75
2022-08-05T00:37:10.726Z,62.04
2022-08-05T00:39:07.217Z,61.91
2022-08-05T00:41:55.093Z,62.32
2022-08-05T00:44:23.466Z,61.98
2022-08-05T00:47:01.516Z,62.57
2022-08-05T00:49:32.811Z,62.35
2022-08-05T00:52:00.420Z,62.57
2022-08-05T00:54:28.157Z,62.94
2022-08-05T00:56:59.193Z,62.01
2022-08-05T00:59:26.629Z,62.60
2022-08-05T01:02:02.353Z,62.96
2022-08-05T01:04:29.899Z,62.98
2022-08-05T01:06:57.425Z,63.52
2022-08-05T01:09:27.378Z,63.59
2022-08-05T01:12:09.334Z,63.28
2022-08-05T01:14:50.379Z,63.54
2022-08-05T01:17:25.122Z,64.35
2022-08-05T01:20:03.648Z,64.71
2022-08-05T01:22:42.945Z,64.48
2022-08-05T01:25:40.545Z,65.40
2022-08-05T01:28:29.129Z,66.01
2022-08-05T01:31:03.016Z,66.31
2022-08-05T01:33:35.957Z,66.20
2022-08-05T01:36:12.996Z,66.86
2022-08-05T01:38:45.761Z,66.50
2022-08-05T01:41:21.703Z,66.69
2022-08-05T01:43:52.085Z,66.90
2022-08-05T01:46:42.154Z,66.71
2022-08-05T01:49:22.667Z,67.06
2022-08-05T01:51:58.924Z,66.71
2022-08-05T01:54:32.117Z,66.22
2022-08-05T01:58:09.565Z,66.69
2022-08-05T01:59:52.668Z,66.50
2022-08-05T02:02:28.338Z,66.11
2022-08-05T02:05:00.906Z,65.99
2022-08-05T02:07:31.906Z,65.51
2022-08-05T02:10:01.535Z,65.55
2022-08-05T02:12:36.482Z,65.43
2022-08-05T02:15:12.482Z,65.20
2022-08-05T02:18:33.135Z,64.99
2022-08-05T02:20:40.568Z,65.35
2022-08-05T02:23:11.784Z,65.39
2022-08-05T02:25:49.863Z,65.49
2022-08-05T02:28:29.337Z,65.69
2022-08-05T02:31:05.586Z,66.19
2022-08-05T02:33:39.623Z,65.84
2022-08-05T02:36:13.673Z,66.35
2022-08-05T02:38:53.259Z,66.33
2022-08-05T02:41:23.773Z,66.29
2022-08-05T02:44:06.151Z,66.73
2022-08-05T02:46:53.558Z,65.77
2022-08-05T02:49:37.130Z,65.10
2022-08-05T02:52:09.280Z,65.45
2022-08-05T02:54:41.232Z,65.79
2022-08-05T02:58:12.235Z,65.89
2022-08-05T03:00:01.613Z,66.28
2022-08-05T03:02:35.021Z,66.24
2022-08-05T03:05:04.076Z,66.32
2022-08-05T03:07:59.436Z,65.81
2022-08-05T03:10:24.594Z,65.21
2022-08-05T03:12:53.151Z,66.14
2022-08-05T03:15:21.174Z,66.41
2022-08-05T03:17:54.155Z,67.07
2022-08-05T03:20:24.342Z,67.56
2022-08-05T03:22:52.624Z,67.62
2022-08-05T03:25:33.724Z,67.56
2022-08-05T03:28:08.927Z,67.57
2022-08-05T03:30:38.198Z,67.89
2022-08-05T03:33:07.529Z,68.32
2022-08-05T03:35:40.805Z,68.43
2022-08-05T03:38:11.066Z,67.95
2022-08-05T03:40:40.600Z,67.63
2022-08-05T03:43:58.743Z,67.15
2022-08-05T03:45:58.737Z,67.11
2022-08-05T03:48:28.173Z,67.63
2022-08-05T03:52:38.328Z,67.88
2022-08-05T03:55:06.889Z,68.60
2022-08-05T03:56:46.629Z,69.53
2022-08-05T03:59:20.191Z,70.49
2022-08-05T04:01:51.016Z,70.63
2022-08-05T04:04:22.072Z,70.50
2022-08-05T04:06:54.988Z,69.65
2022-08-05T04:09:26.530Z,69.09
2022-08-05T04:11:56.487Z,68.98
2022-08-05T04:14:30.102Z,68.41
2022-08-05T04:17:00.268Z,67.96
2022-08-05T04:19:30.006Z,67.64
2022-08-05T04:22:10.247Z,67.39
2022-08-05T04:24:44.563Z,67.22
2022-08-05T04:27:19.881Z,66.67
2022-08-05T04:30:09.235Z,66.85
2022-08-05T04:32:36.588Z,66.42
2022-08-05T04:35:17.725Z,65.82
2022-08-05T04:38:00.899Z,65.66
2022-08-05T04:40:29.425Z,65.27
2022-08-05T04:42:57.202Z,64.56
2022-08-05T04:45:48.408Z,65.98
2022-08-05T04:48:18.743Z,65.32
2022-08-05T04:51:03.218Z,64.44
2022-08-05T04:53:38.682Z,64.37
2022-08-05T04:56:33.959Z,64.08
2022-08-05T04:58:54.818Z,63.97
2022-08-05T05:02:06.397Z,64.64
2022-08-05T05:04:09.657Z,64.82
2022-08-05T05:06:45.113Z,63.59
2022-08-05T05:09:17.533Z,63.28
2022-08-05T05:11:55.554Z,63.50
2022-08-05T05:14:28.012Z,63.09
2022-08-05T05:17:00.406Z,62.88
2022-08-05T05:19:37.232Z,63.45
2022-08-05T05:22:24.515Z,63.39
2022-08-05T05:24:57.956Z,63.23
2022-08-05T05:27:44.730Z,61.97
2022-08-05T05:30:15.567Z,60.46
2022-08-05T05:33:00.438Z,61.10
2022-08-05T05:35:31.604Z,60.56
2022-08-05T05:38:08.941Z,59.76
2022-08-05T05:40:42.492Z,58.96
2022-08-05T05:43:15.788Z,60.48
2022-08-05T05:45:49.943Z,60.21
2022-08-05T05:48:17.109Z,59.89
2022-08-05T05:50:44.678Z,60.44
2022-08-05T05:53:21.066Z,59.46
2022-08-05T05:55:51.373Z,58.07
2022-08-05T05:58:31.742Z,58.02
2022-08-05T06:01:02.220Z,58.63
2022-08-05T06:04:01.327Z,57.23
2022-08-05T06:06:33.074Z,57.63
2022-08-05T06:09:05.145Z,56.26
2022-08-05T06:11:32.760Z,55.96
2022-08-05T06:14:00.743Z,56.84
2022-08-05T06:16:36.832Z,55.89
2022-08-05T06:19:07.341Z,54.80
2022-08-05T06:21:38.506Z,55.39
2022-08-05T06:24:12.691Z,54.36
2022-08-05T06:26:51.600Z,54.12
2022-08-05T06:29:42.802Z,54.29
2022-08-05T06:32:24.902Z,53.11
2022-08-05T06:34:58.353Z,53.49
2022-08-05T06:37:55.603Z,54.06
2022-08-05T06:40:18.449Z,51.51
2022-08-05T06:42:52.353Z,52.20
2022-08-05T06:45:44.623Z,50.88
2022-08-05T06:48:36.080Z,49.39
2022-08-05T06:50:57.110Z,50.50
2022-08-05T06:53:28.303Z,49.97
2022-08-05T06:55:58.113Z,51.66
2022-08-05T06:58:35.311Z,49.42
2022-08-05T07:01:06.104Z,48.65
2022-08-05T07:03:35.147Z,48.21
2022-08-05T07:06:05.901Z,48.68
2022-08-05T07:08:42.569Z,49.38
2022-08-05T07:11:15.421Z,48.16
2022-08-05T07:13:58.205Z,46.34
2022-08-05T07:18:01.162Z,45.76
2022-08-05T07:19:15.387Z,45.84
2022-08-05T07:22:00.571Z,47.47
2022-08-05T07:24:28.916Z,45.69
2022-08-05T07:26:58.990Z,44.33
2022-08-05T07:30:27.919Z,46.17
2022-08-05T07:32:14.632Z,44.46
2022-08-05T07:34:42.526Z,43.83
2022-08-05T07:37:11.688Z,43.75
2022-08-05T07:40:26.063Z,41.83
2022-08-05T07:42:31.850Z,43.40
2022-08-05T07:45:01.973Z,41.65
2022-08-05T07:47:42.408Z,42.92
2022-08-05T07:50:10.711Z,41.25
2022-08-05T07:52:39.098Z,42.42
2022-08-05T07:55:15.800Z,39.47
2022-08-05T07:58:02.754Z,41.09
2022-08-05T08:00:30.663Z,41.04
2022-08-05T08:03:14.706Z,40.71
2022-08-05T08:05:49.442Z,41.13
2022-08-05T08:08:20.098Z,40.15
2022-08-05T08:10:49.068Z,40.08
2022-08-05T08:13:28.813Z,39.72
2022-08-05T08:16:50.023Z,38.83
2022-08-05T08:18:49.949Z,38.27
2022-08-05T08:21:19.360Z,40.79
2022-08-05T08:24:03.357Z,38.73
2022-08-05T08:26:32.499Z,38.51
2022-08-05T08:29:21.719Z,38.82
2022-08-05T08:31:49.513Z,37.66
2022-08-05T08:34:18.752Z,39.13
2022-08-05T08:36:54.651Z,38.14
2022-08-05T08:39:24.506Z,32.88
2022-08-05T08:41:59.486Z,35.01
2022-08-05T08:45:18.645Z,34.28
2022-08-05T08:48:05.702Z,32.41
2022-08-05T08:50:22.488Z,33.17
2022-08-05T08:53:11.848Z,31.12
2022-08-05T08:56:03.748Z,32.67
2022-08-05T08:58:43.231Z,30.34
2022-08-05T09:01:16.294Z,31.65
2022-08-05T09:03:46.301Z,29.52
2022-08-05T09:06:18.609Z,30.53
2022-08-05T09:08:48.680Z,29.50
2022-08-05T09:11:16.439Z,29.56
2022-08-05T09:14:09.484Z,29.21
2022-08-05T09:16:33.671Z,29.93
2022-08-05T09:19:01.500Z,29.02
2022-08-05T09:22:17.825Z,28.82
2022-08-05T09:24:22.393Z,27.90
2022-08-05T09:26:55.875Z,28.42
2022-08-05T09:29:44.771Z,28.41
2022-08-05T09:32:41.209Z,29.00
2022-08-05T09:35:11.138Z,27.62
2022-08-05T09:38:12.072Z,28.43
2022-08-05T09:40:52.596Z,27.96
2022-08-05T09:43:41.788Z,27.84
2022-08-05T09:46:27.931Z,26.64
2022-08-05T09:49:07.990Z,27.69
2022-08-05T09:51:49.556Z,27.69
2022-08-05T09:54:31.683Z,29.76
2022-08-05T09:57:01.735Z,26.73
2022-08-05T09:59:35.126Z,27.39
2022-08-05T10:02:04.707Z,27.56
2022-08-05T10:04:38.426Z,27.34
2022-08-05T10:07:25.066Z,27.53
2022-08-05T10:10:14.418Z,28.42
2022-08-05T10:12:49.804Z,27.68
2022-08-05T10:15:25.991Z,27.34
2022-08-05T10:18:05.847Z,26.48
2022-08-05T10:20:38.670Z,23.81
2022-08-05T10:23:21.851Z,24.56
2022-08-05T10:25:55.571Z,25.48
2022-08-05T10:28:29.193Z,25.51
2022-08-05T10:32:47.699Z,26.36
2022-08-05T10:33:54.318Z,25.33
2022-08-05T10:36:28.581Z,25.27
2022-08-05T10:39:01.066Z,26.42
2022-08-05T10:41:44.999Z,23.92
2022-08-05T10:44:19.024Z,26.33
2022-08-05T10:46:51.033Z,23.17
2022-08-05T10:49:27.455Z,24.01
2022-08-05T10:52:05.583Z,23.29
2022-08-05T10:54:56.554Z,24.51
2022-08-05T10:57:30.995Z,24.16
2022-08-05T11:00:22.890Z,23.62
2022-08-05T11:03:24.291Z,22.33
2022-08-05T11:06:30.757Z,21.68
2022-08-05T11:09:17.540Z,24.06
2022-08-05T11:11:53.307Z,21.27
2022-08-05T11:14:49.447Z,23.11
2022-08-05T11:18:09.451Z,23.13
2022-08-05T11:20:43.694Z,22.94
2022-08-05T11:23:33.725Z,23.10
2022-08-05T11:26:29.133Z,24.39
2022-08-05T11:29:11.489Z,22.88
2022-08-05T11:31:58.503Z,23.29
2022-08-05T11:34:52.187Z,22.04
2022-08-05T11:38:26.164Z,21.42
2022-08-05T11:41:35.510Z,24.80
2022-08-05T11:44:05.128Z,21.77
2022-08-05T11:46:35.959Z,20.56
2022-08-05T11:49:05.199Z,20.63
2022-08-05T11:51:44.393Z,21.31
2022-08-05T11:54:22.780Z,19.66
2022-08-05T11:57:07.987Z,20.64
2022-08-05T11:59:50.017Z,19.19
2022-08-05T12:02:30.068Z,23.79
2022-08-05T12:05:01.351Z,21.99
2022-08-05T12:08:07.258Z,21.34
2022-08-05T12:10:43.805Z,19.32
2022-08-05T12:13:17.466Z,18.68
2022-08-05T12:15:50.182Z,21.73
2022-08-05T12:18:18.543Z,21.81
2022-08-05T12:20:48.319Z,18.33
2022-08-05T12:23:16.790Z,19.47
2022-08-05T12:25:51.966Z,20.25
2022-08-05T12:28:31.719Z,19.82
2022-08-05T12:31:03.083Z,17.85
2022-08-05T12:33:36.367Z,17.77
2022-08-05T12:36:09.292Z,17.32
2022-08-05T12:38:38.288Z,18.82
2022-08-05T12:41:13.338Z,17.91
2022-08-05T12:43:53.553Z,17.47
2022-08-05T12:46:29.301Z,21.65
2022-08-05T12:48:59.329Z,21.73
2022-08-05T12:52:10.760Z,20.08
2022-08-05T12:54:23.670Z,17.72
2022-08-05T12:56:55.785Z,18.03
2022-08-05T12:59:27.603Z,18.76
2022-08-05T13:02:18.849Z,19.23
2022-08-05T13:04:52.590Z,19.19
2022-08-05T13:07:55.815Z,21.17
2022-08-05T13:10:19.427Z,19.56
2022-08-05T13:12:51.014Z,18.49
2022-08-05T13:15:41.607Z,17.56
2022-08-05T13:18:20.456Z,19.62
2022-08-05T13:20:49.118Z,16.05
2022-08-05T13:23:22.056Z,15.86
2022-08-05T13:25:59.568Z,15.69
2022-08-05T13:28:29.091Z,16.96
2022-08-05T13:30:59.870Z,17.74
2022-08-05T13:34:21.195Z,18.45
2022-08-05T13:36:29.602Z,22.10
2022-08-05T13:38:56.987Z,19.26
2022-08-05T13:41:35.858Z,18.53
2022-08-05T13:44:05.471Z,17.92
2022-08-05T13:46:44.392Z,16.08
2022-08-05T13:49:22.736Z,18.19
2022-08-05T13:51:50.224Z,18.17
2022-08-05T13:54:25.073Z,19.26
2022-08-05T13:56:53.333Z,20.79
2022-08-05T13:59:24.510Z,16.49
2022-08-05T14:01:57.784Z,18.10
2022-08-05T14:04:30.140Z,18.07
2022-08-05T14:07:12.092Z,18.71
2022-08-05T14:09:47.778Z,19.40
2022-08-05T14:12:18.117Z,19.17
2022-08-05T14:14:59.599Z,19.86
2022-08-05T14:17:28.353Z,18.15
2022-08-05T14:20:02.350Z,19.49
2022-08-05T14:22:34.967Z,17.75
2022-08-05T14:25:02.547Z,17.49
2022-08-05T14:27:33.931Z,17.63
2022-08-05T14:30:02.113Z,20.32
2022-08-05T14:32:31.832Z,18.77
2022-08-05T14:35:00.790Z,17.59
2022-08-05T14:37:44.859Z,18.66
2022-08-05T14:40:16.897Z,18.97
2022-08-05T14:42:44.961Z,18.34
2022-08-05T14:45:13.425Z,16.46
2022-08-05T14:48:03.268Z,18.11
2022-08-05T14:50:31.688Z,16.96
2022-08-05T14:52:59.341Z,17.90
2022-08-05T14:55:38.610Z,17.90
2022-08-05T14:58:12.135Z,18.14
2022-08-05T15:00:59.134Z,18.90
2022-08-05T15:03:33.684Z,18.90
2022-08-05T15:06:14.823Z,18.07
2022-08-05T15:08:59.673Z,19.87
2022-08-05T15:11:52.884Z,18.95
2022-08-05T15:14:33.380Z,17.25
2022-08-05T15:17:03.809Z,17.42
2022-08-05T15:19:32.442Z,18.81
2022-08-05T15:22:01.748Z,21.04
2022-08-05T15:24:29.863Z,19.70
2022-08-05T15:26:58.463Z,20.28
2022-08-05T15:29:30.224Z,17.60
2022-08-05T15:31:57.601Z,18.88
2022-08-05T15:34:33.051Z,20.28
2022-08-05T15:37:06.157Z,21.63
2022-08-05T15:40:58.661Z,20.96
2022-08-05T15:42:55.195Z,20.21
2022-08-05T15:45:27.131Z,21.19
2022-08-05T15:48:06.958Z,20.28
2022-08-05T15:50:34.695Z,20.57
2022-08-05T15:53:05.689Z,18.50
2022-08-05T15:56:02.223Z,19.70
2022-08-05T15:58:24.080Z,21.70
2022-08-05T16:01:11.889Z,20.02
2022-08-05T16:03:42.667Z,23.16
2022-08-05T16:06:11.339Z,22.64
2022-08-05T16:08:40.563Z,24.58
2022-08-05T16:11:09.293Z,23.01
2022-08-05T16:13:37.219Z,24.25
2022-08-05T16:16:05.100Z,24.64
2022-08-05T16:18:32.564Z,25.72
2022-08-05T16:21:03.971Z,25.81
2022-08-05T16:23:53.228Z,24.29
2022-08-05T16:26:26.446Z,24.18
2022-08-05T16:28:54.999Z,26.32
2022-08-05T16:31:22.906Z,27.43
2022-08-05T16:33:50.860Z,27.57
2022-08-05T16:36:20.472Z,26.73
2022-08-05T16:38:54.744Z,27.97
2022-08-05T16:42:12.586Z,28.81
2022-08-05T16:44:14.596Z,28.46
2022-08-05T16:46:55.969Z,26.12
2022-08-05T16:49:23.993Z,32.75
2022-08-05T16:51:54.801Z,34.45
2022-08-05T16:54:28.987Z,36.94
2022-08-05T16:57:01.720Z,31.88
2022-08-05T16:59:30.663Z,36.39
2022-08-05T17:01:58.317Z,33.57
2022-08-05T17:04:28.571Z,35.08
2022-08-05T17:07:00.221Z,37.89
2022-08-05T17:09:29.562Z,37.58
2022-08-05T17:11:59.279Z,37.15
2022-08-05T17:14:37.697Z,39.27
2022-08-05T17:17:14.567Z,38.75
2022-08-05T17:19:43.868Z,39.70
2022-08-05T17:22:24.862Z,40.17
2022-08-05T17:24:57.981Z,39.59
2022-08-05T17:27:27.482Z,41.36
2022-08-05T17:30:04.429Z,40.38
2022-08-05T17:32:35.276Z,38.41
2022-08-05T17:35:02.805Z,40.13
2022-08-05T17:37:41.915Z,38.57
2022-08-05T17:40:15.679Z,33.44
2022-08-05T17:42:50.884Z,34.35
2022-08-05T17:45:22.608Z,33.51
2022-08-05T17:47:54.541Z,30.83
2022-08-05T17:50:28.749Z,32.37
2022-08-05T17:52:59.841Z,29.98
2022-08-05T17:55:38.491Z,31.28
2022-08-05T17:58:10.933Z,31.11
2022-08-05T18:00:45.338Z,31.63
2022-08-05T18:03:28.129Z,31.76
2022-08-05T18:06:03.772Z,31.97
2022-08-05T18:08:32.303Z,31.62
2022-08-05T18:11:00.098Z,32.29
2022-08-05T18:13:28.173Z,32.56
2022-08-05T18:16:05.947Z,32.85
2022-08-05T18:18:33.583Z,34.12
2022-08-05T18:21:13.361Z,33.95
2022-08-05T18:23:47.677Z,34.73
2022-08-05T18:26:14.912Z,34.93
2022-08-05T18:28:46.511Z,34.29
2022-08-05T18:31:16.904Z,34.96
2022-08-05T18:33:47.113Z,35.50
2022-08-05T18:36:15.238Z,35.53
2022-08-05T18:38:44.005Z,35.74
2022-08-05T18:41:56.902Z,36.25
2022-08-05T18:44:06.437Z,36.34
2022-08-05T18:46:36.641Z,36.68
2022-08-05T18:49:04.277Z,37.01
2022-08-05T18:52:03.164Z,37.30
2022-08-05T18:54:21.556Z,37.14
2022-08-05T18:56:51.114Z,38.21
2022-08-05T18:59:43.838Z,38.09
2022-08-05T19:02:26.907Z,38.00
2022-08-05T19:05:02.092Z,38.21
2022-08-05T19:07:46.643Z,37.81
2022-08-05T19:10:14.497Z,37.74
2022-08-05T19:12:43.243Z,38.04
2022-08-05T19:15:54.715Z,38.38
2022-08-05T19:18:09.559Z,38.24
2022-08-05T19:20:41.120Z,38.88
2022-08-05T19:24:04.140Z,38.89
2022-08-05T19:26:01.974Z,38.98
2022-08-05T19:28:30.472Z,39.29
2022-08-05T19:30:58.205Z,39.33
2022-08-05T19:33:35.922Z,39.08
2022-08-05T19:36:06.204Z,38.04
2022-08-05T19:38:35.722Z,38.11
2022-08-05T19:41:06.739Z,38.25
2022-08-05T19:44:06.164Z,38.56
2022-08-05T19:46:29.384Z,38.93
2022-08-05T19:49:00.956Z,39.21
2022-08-05T19:52:08.488Z,38.79
2022-08-05T19:54:25.450Z,39.12
2022-08-05T19:56:58.227Z,39.12
2022-08-05T19:59:56.582Z,39.54
2022-08-05T20:02:13.530Z,40.00
2022-08-05T20:04:43.173Z,39.78
2022-08-05T20:07:13.648Z,40.26
2022-08-05T20:09:55.011Z,40.83
2022-08-05T20:12:25.111Z,41.45
2022-08-05T20:14:55.336Z,41.19
2022-08-05T20:17:23.170Z,41.14
2022-08-05T20:19:56.693Z,41.84
2022-08-05T20:22:24.984Z,41.24
2022-08-05T20:24:55.479Z,41.71
2022-08-05T20:27:26.380Z,42.35
2022-08-05T20:29:58.325Z,42.51
2022-08-05T20:32:27.556Z,42.98
2022-08-05T20:34:56.593Z,42.94
2022-08-05T20:38:07.736Z,43.51
2022-08-05T20:40:12.647Z,42.99
2022-08-05T20:42:40.303Z,42.70
2022-08-05T20:45:11.196Z,43.04
2022-08-05T20:47:40.108Z,43.05
2022-08-05T20:50:11.367Z,43.70
2022-08-05T20:52:38.758Z,43.81
2022-08-05T20:55:54.946Z,44.27
2022-08-05T20:57:57.154Z,45.48
2022-08-05T21:00:49.620Z,45.62
2022-08-05T21:03:12.499Z,46.02
2022-08-05T21:05:53.733Z,45.60
2022-08-05T21:08:28.239Z,45.65
2022-08-05T21:11:11.695Z,45.88
2022-08-05T21:13:56.427Z,46.95
2022-08-05T21:16:30.203Z,50.34
2022-08-05T21:19:00.171Z,53.67
2022-08-05T21:21:44.047Z,55.52
2022-08-05T21:24:19.573Z,58.47
2022-08-05T21:26:53.754Z,60.11
2022-08-05T21:29:31.253Z,60.32
2022-08-05T21:32:01.309Z,60.09
2022-08-05T21:34:28.739Z,61.64
2022-08-05T21:37:00.593Z,61.49
2022-08-05T21:39:34.782Z,61.55
2022-08-05T21:42:30.964Z,62.33
2022-08-05T21:44:55.666Z,61.32
2022-08-05T21:58:13.489Z,63.17
2022-08-05T22:00:41.236Z,62.94
2022-08-05T22:03:18.467Z,63.12
2022-08-05T22:06:05.950Z,62.33
2022-08-05T22:08:33.170Z,62.49
2022-08-05T22:11:00.362Z,63.00
2022-08-05T22:14:05.986Z,63.06
2022-08-05T22:16:40.512Z,62.35
2022-08-05T22:19:15.138Z,62.69
2022-08-05T22:21:55.329Z,62.16
2022-08-05T22:24:40.842Z,62.05
2022-08-05T22:27:16.552Z,62.57
2022-08-05T22:29:46.319Z,62.53
2022-08-05T22:32:22.964Z,62.37
2022-08-05T22:34:51.466Z,62.34
2022-08-05T22:37:18.778Z,62.63
2022-08-05T22:39:50.466Z,62.40
2022-08-05T22:42:26.047Z,61.84
2022-08-05T22:44:56.673Z,62.40
2022-08-05T22:47:29.148Z,63.26
2022-08-05T22:50:19.481Z,63.46
2022-08-05T22:52:46.790Z,63.16
2022-08-05T22:55:19.057Z,63.04
2022-08-05T22:57:49.117Z,63.94
2022-08-05T23:00:21.246Z,64.04
2022-08-05T23:02:49.990Z,64.49
2022-08-05T23:05:18.403Z,64.11
2022-08-05T23:07:49.511Z,64.49
2022-08-05T23:10:20.174Z,63.72
2022-08-05T23:12:51.171Z,64.50
2022-08-05T23:15:20.499Z,63.77
2022-08-05T23:18:00.850Z,63.54
2022-08-05T23:20:31.308Z,63.13
2022-08-05T23:22:59.767Z,63.14
2022-08-05T23:25:52.962Z,63.83
2022-08-05T23:28:15.771Z,63.53
2022-08-05T23:30:53.767Z,63.69
2022-08-05T23:34:03.339Z,63.81
2022-08-05T23:36:13.477Z,63.63
2022-08-05T23:38:42.801Z,63.66
2022-08-05T23:41:11.028Z,63.20
2022-08-05T23:44:04.855Z,62.74
2022-08-05T23:46:27.607Z,62.56
2022-08-05T23:49:01.113Z,62.91
2022-08-05T23:51:30.784Z,63.23
2022-08-05T23:54:01.526Z,63.31
2022-08-05T23:56:28.882Z,63.74
2022-08-05T23:58:58.641Z,64.52
